sensor_id;sensor_type;location;lat;lon;timestamp;P1;durP1;ratioP1;P2;durP2;ratioP2
18383;SDS011;9318;48.644;9.456;2023-04-15T00:01:58;8.60;;;4.37;;
18383;SDS011;9318;48.644;9.456;2023-04-15T00:04:25;11.50;;;4.70;;
18383;SDS011;9318;48.644;9.456;2023-04-15T00:06:52;9.03;;;4.63;;
18383;SDS011;9318;48.644;9.456;2023-04-15T00:09:19;6.87;;;4.20;;
18383;SDS011;9318;48.644;9.456;2023-04-15T00:11:48;8.70;;;4.43;;
18383;SDS011;9318;48.644;9.456;2023-04-15T00:14:16;7.90;;;4.40;;
18383;SDS011;9318;48.644;9.456;2023-04-15T00:16:43;8.20;;;4.20;;
18383;SDS011;9318;48.644;9.456;2023-04-15T00:19:10;7.87;;;4.23;;
18383;SDS011;9318;48.644;9.456;2023-04-15T00:21:37;10.70;;;4.33;;
18383;SDS011;9318;48.644;9.456;2023-04-15T00:24:03;8.27;;;3.90;;
18383;SDS011;9318;48.644;9.456;2023-04-15T00:26:30;9.47;;;4.10;;
18383;SDS011;9318;48.644;9.456;2023-04-15T00:28:59;8.30;;;4.00;;
18383;SDS011;9318;48.644;9.456;2023-04-15T00:31:25;6.50;;;4.00;;
18383;SDS011;9318;48.644;9.456;2023-04-15T00:33:52;9.33;;;4.13;;
18383;SDS011;9318;48.644;9.456;2023-04-15T00:36:19;7.90;;;4.40;;
18383;SDS011;9318;48.644;9.456;2023-04-15T00:38:45;11.00;;;5.20;;
18383;SDS011;9318;48.644;9.456;2023-04-15T00:41:12;10.47;;;4.43;;
18383;SDS011;9318;48.644;9.456;2023-04-15T00:43:39;8.50;;;4.70;;
18383;SDS011;9318;48.644;9.456;2023-04-15T00:46:07;12.17;;;5.10;;
18383;SDS011;9318;48.644;9.456;2023-04-15T00:48:34;9.00;;;4.60;;
18383;SDS011;9318;48.644;9.456;2023-04-15T00:51:02;7.17;;;4.13;;
18383;SDS011;9318;48.644;9.456;2023-04-15T00:53:29;11.03;;;4.53;;
18383;SDS011;9318;48.644;9.456;2023-04-15T00:55:56;6.90;;;4.00;;
18383;SDS011;9318;48.644;9.456;2023-04-15T00:58:23;8.10;;;4.03;;
18383;SDS011;9318;48.644;9.456;2023-04-15T01:00:52;13.20;;;4.87;;
18383;SDS011;9318;48.644;9.456;2023-04-15T01:03:21;7.87;;;4.00;;
18383;SDS011;9318;48.644;9.456;2023-04-15T01:05:48;10.27;;;4.87;;
18383;SDS011;9318;48.644;9.456;2023-04-15T01:08:16;9.27;;;4.07;;
18383;SDS011;9318;48.644;9.456;2023-04-15T01:10:43;8.03;;;3.97;;
18383;SDS011;9318;48.644;9.456;2023-04-15T01:13:10;7.33;;;4.17;;
18383;SDS011;9318;48.644;9.456;2023-04-15T01:15:37;9.67;;;4.37;;
18383;SDS011;9318;48.644;9.456;2023-04-15T01:18:04;10.30;;;5.13;;
18383;SDS011;9318;48.644;9.456;2023-04-15T01:20:34;11.20;;;5.07;;
18383;SDS011;9318;48.644;9.456;2023-04-15T01:23:01;7.97;;;4.70;;
18383;SDS011;9318;48.644;9.456;2023-04-15T01:25:31;10.33;;;5.00;;
18383;SDS011;9318;48.644;9.456;2023-04-15T01:27:58;11.63;;;5.13;;
18383;SDS011;9318;48.644;9.456;2023-04-15T01:30:26;9.63;;;5.30;;
18383;SDS011;9318;48.644;9.456;2023-04-15T01:32:53;10.80;;;5.10;;
18383;SDS011;9318;48.644;9.456;2023-04-15T01:35:20;7.87;;;4.83;;
18383;SDS011;9318;48.644;9.456;2023-04-15T01:37:48;10.67;;;4.70;;
18383;SDS011;9318;48.644;9.456;2023-04-15T01:40:15;10.60;;;4.37;;
18383;SDS011;9318;48.644;9.456;2023-04-15T01:42:43;8.57;;;4.50;;
18383;SDS011;9318;48.644;9.456;2023-04-15T01:45:10;10.17;;;4.70;;
18383;SDS011;9318;48.644;9.456;2023-04-15T01:47:37;8.93;;;4.63;;
18383;SDS011;9318;48.644;9.456;2023-04-15T01:50:04;9.93;;;4.60;;
18383;SDS011;9318;48.644;9.456;2023-04-15T01:52:32;8.97;;;4.50;;
18383;SDS011;9318;48.644;9.456;2023-04-15T01:54:59;7.67;;;4.43;;
18383;SDS011;9318;48.644;9.456;2023-04-15T01:57:25;9.53;;;4.73;;
18383;SDS011;9318;48.644;9.456;2023-04-15T01:59:54;7.70;;;4.47;;
18383;SDS011;9318;48.644;9.456;2023-04-15T02:02:20;13.30;;;4.40;;
18383;SDS011;9318;48.644;9.456;2023-04-15T02:04:47;11.00;;;4.50;;
18383;SDS011;9318;48.644;9.456;2023-04-15T02:07:14;8.07;;;4.40;;
18383;SDS011;9318;48.644;9.456;2023-04-15T02:09:41;9.37;;;4.50;;
18383;SDS011;9318;48.644;9.456;2023-04-15T02:12:10;9.43;;;4.47;;
18383;SDS011;9318;48.644;9.456;2023-04-15T02:14:37;9.83;;;4.50;;
18383;SDS011;9318;48.644;9.456;2023-04-15T02:17:05;9.73;;;4.80;;
18383;SDS011;9318;48.644;9.456;2023-04-15T02:19:32;11.20;;;5.00;;
18383;SDS011;9318;48.644;9.456;2023-04-15T02:21:59;9.00;;;4.60;;
18383;SDS011;9318;48.644;9.456;2023-04-15T02:24:26;7.73;;;4.70;;
18383;SDS011;9318;48.644;9.456;2023-04-15T02:26:55;11.67;;;4.90;;
18383;SDS011;9318;48.644;9.456;2023-04-15T02:29:22;10.80;;;4.47;;
18383;SDS011;9318;48.644;9.456;2023-04-15T02:31:49;8.93;;;5.07;;
18383;SDS011;9318;48.644;9.456;2023-04-15T02:34:17;10.53;;;5.03;;
18383;SDS011;9318;48.644;9.456;2023-04-15T02:36:44;9.57;;;4.80;;
18383;SDS011;9318;48.644;9.456;2023-04-15T02:39:11;8.30;;;4.40;;
18383;SDS011;9318;48.644;9.456;2023-04-15T02:41:40;8.17;;;4.30;;
18383;SDS011;9318;48.644;9.456;2023-04-15T02:44:07;7.80;;;4.13;;
18383;SDS011;9318;48.644;9.456;2023-04-15T02:46:36;7.63;;;3.80;;
18383;SDS011;9318;48.644;9.456;2023-04-15T02:49:05;10.03;;;3.80;;
18383;SDS011;9318;48.644;9.456;2023-04-15T02:51:33;8.43;;;3.90;;
18383;SDS011;9318;48.644;9.456;2023-04-15T02:54:00;10.67;;;4.30;;
18383;SDS011;9318;48.644;9.456;2023-04-15T02:56:27;9.80;;;4.43;;
18383;SDS011;9318;48.644;9.456;2023-04-15T02:58:54;8.73;;;4.30;;
18383;SDS011;9318;48.644;9.456;2023-04-15T03:01:21;7.30;;;4.07;;
18383;SDS011;9318;48.644;9.456;2023-04-15T03:03:48;7.83;;;3.90;;
18383;SDS011;9318;48.644;9.456;2023-04-15T03:06:14;9.37;;;4.43;;
18383;SDS011;9318;48.644;9.456;2023-04-15T03:08:42;8.30;;;4.47;;
18383;SDS011;9318;48.644;9.456;2023-04-15T03:11:09;8.47;;;4.33;;
18383;SDS011;9318;48.644;9.456;2023-04-15T03:13:36;11.13;;;4.10;;
18383;SDS011;9318;48.644;9.456;2023-04-15T03:16:06;9.40;;;4.60;;
18383;SDS011;9318;48.644;9.456;2023-04-15T03:18:33;8.93;;;4.60;;
18383;SDS011;9318;48.644;9.456;2023-04-15T03:20:59;11.87;;;4.60;;
18383;SDS011;9318;48.644;9.456;2023-04-15T03:23:26;12.43;;;4.97;;
18383;SDS011;9318;48.644;9.456;2023-04-15T03:25:55;11.10;;;5.17;;
18383;SDS011;9318;48.644;9.456;2023-04-15T03:28:22;8.83;;;4.40;;
18383;SDS011;9318;48.644;9.456;2023-04-15T03:30:49;10.63;;;4.60;;
18383;SDS011;9318;48.644;9.456;2023-04-15T03:33:15;7.60;;;4.20;;
18383;SDS011;9318;48.644;9.456;2023-04-15T03:35:42;8.93;;;4.50;;
18383;SDS011;9318;48.644;9.456;2023-04-15T03:38:09;6.97;;;4.20;;
18383;SDS011;9318;48.644;9.456;2023-04-15T03:40:36;8.00;;;4.33;;
18383;SDS011;9318;48.644;9.456;2023-04-15T03:43:04;8.93;;;4.60;;
18383;SDS011;9318;48.644;9.456;2023-04-15T03:45:31;9.87;;;4.43;;
18383;SDS011;9318;48.644;9.456;2023-04-15T03:47:58;12.27;;;4.80;;
18383;SDS011;9318;48.644;9.456;2023-04-15T03:50:25;9.60;;;4.50;;
18383;SDS011;9318;48.644;9.456;2023-04-15T03:52:52;11.10;;;4.70;;
18383;SDS011;9318;48.644;9.456;2023-04-15T03:55:18;14.70;;;4.40;;
18383;SDS011;9318;48.644;9.456;2023-04-15T03:57:45;12.43;;;5.00;;
18383;SDS011;9318;48.644;9.456;2023-04-15T04:00:13;9.50;;;4.63;;
18383;SDS011;9318;48.644;9.456;2023-04-15T04:02:40;5.90;;;4.20;;
18383;SDS011;9318;48.644;9.456;2023-04-15T04:05:07;7.23;;;4.73;;
18383;SDS011;9318;48.644;9.456;2023-04-15T04:07:34;11.47;;;4.70;;
18383;SDS011;9318;48.644;9.456;2023-04-15T04:10:01;8.80;;;4.50;;
18383;SDS011;9318;48.644;9.456;2023-04-15T04:12:29;12.60;;;4.30;;
18383;SDS011;9318;48.644;9.456;2023-04-15T04:14:56;6.83;;;4.20;;
18383;SDS011;9318;48.644;9.456;2023-04-15T04:17:24;11.30;;;4.63;;
18383;SDS011;9318;48.644;9.456;2023-04-15T04:19:51;10.60;;;4.57;;
18383;SDS011;9318;48.644;9.456;2023-04-15T04:22:20;10.43;;;4.80;;
18383;SDS011;9318;48.644;9.456;2023-04-15T04:24:47;8.93;;;4.80;;
18383;SDS011;9318;48.644;9.456;2023-04-15T04:27:14;10.03;;;5.07;;
18383;SDS011;9318;48.644;9.456;2023-04-15T04:29:41;10.10;;;5.23;;
18383;SDS011;9318;48.644;9.456;2023-04-15T04:32:08;10.57;;;4.43;;
18383;SDS011;9318;48.644;9.456;2023-04-15T04:34:36;7.47;;;4.20;;
18383;SDS011;9318;48.644;9.456;2023-04-15T04:37:03;11.17;;;4.43;;
18383;SDS011;9318;48.644;9.456;2023-04-15T04:39:30;7.07;;;3.97;;
18383;SDS011;9318;48.644;9.456;2023-04-15T04:41:57;12.13;;;4.60;;
18383;SDS011;9318;48.644;9.456;2023-04-15T04:44:25;10.50;;;4.70;;
18383;SDS011;9318;48.644;9.456;2023-04-15T04:46:52;7.90;;;4.33;;
18383;SDS011;9318;48.644;9.456;2023-04-15T04:49:19;14.40;;;4.50;;
18383;SDS011;9318;48.644;9.456;2023-04-15T04:51:47;6.43;;;4.10;;
18383;SDS011;9318;48.644;9.456;2023-04-15T04:54:14;8.43;;;4.17;;
18383;SDS011;9318;48.644;9.456;2023-04-15T04:56:41;11.17;;;4.27;;
18383;SDS011;9318;48.644;9.456;2023-04-15T04:59:08;13.50;;;6.43;;
18383;SDS011;9318;48.644;9.456;2023-04-15T05:01:35;12.77;;;6.10;;
18383;SDS011;9318;48.644;9.456;2023-04-15T05:04:01;16.67;;;6.37;;
18383;SDS011;9318;48.644;9.456;2023-04-15T05:06:29;10.80;;;6.20;;
18383;SDS011;9318;48.644;9.456;2023-04-15T05:08:58;10.20;;;5.93;;
18383;SDS011;9318;48.644;9.456;2023-04-15T05:11:25;12.93;;;5.57;;
18383;SDS011;9318;48.644;9.456;2023-04-15T05:13:52;10.57;;;4.50;;
18383;SDS011;9318;48.644;9.456;2023-04-15T05:16:19;8.70;;;4.67;;
18383;SDS011;9318;48.644;9.456;2023-04-15T05:18:46;7.57;;;4.27;;
18383;SDS011;9318;48.644;9.456;2023-04-15T05:21:12;7.03;;;4.30;;
18383;SDS011;9318;48.644;9.456;2023-04-15T05:23:39;12.13;;;4.43;;
18383;SDS011;9318;48.644;9.456;2023-04-15T05:26:07;9.63;;;3.97;;
18383;SDS011;9318;48.644;9.456;2023-04-15T05:28:34;10.30;;;4.70;;
18383;SDS011;9318;48.644;9.456;2023-04-15T05:31:01;9.50;;;5.00;;
18383;SDS011;9318;48.644;9.456;2023-04-15T05:33:28;9.60;;;5.30;;
18383;SDS011;9318;48.644;9.456;2023-04-15T05:35:55;13.70;;;5.43;;
18383;SDS011;9318;48.644;9.456;2023-04-15T05:38:21;9.37;;;5.10;;
18383;SDS011;9318;48.644;9.456;2023-04-15T05:40:48;10.87;;;5.90;;
18383;SDS011;9318;48.644;9.456;2023-04-15T05:43:16;9.27;;;5.60;;
18383;SDS011;9318;48.644;9.456;2023-04-15T05:45:43;10.90;;;5.57;;
18383;SDS011;9318;48.644;9.456;2023-04-15T05:48:10;12.93;;;5.87;;
18383;SDS011;9318;48.644;9.456;2023-04-15T05:50:36;7.90;;;4.90;;
18383;SDS011;9318;48.644;9.456;2023-04-15T05:53:06;10.20;;;4.53;;
18383;SDS011;9318;48.644;9.456;2023-04-15T05:55:33;8.80;;;4.97;;
18383;SDS011;9318;48.644;9.456;2023-04-15T05:57:59;9.57;;;5.33;;
18383;SDS011;9318;48.644;9.456;2023-04-15T06:00:29;10.40;;;5.90;;
18383;SDS011;9318;48.644;9.456;2023-04-15T06:02:56;11.70;;;5.50;;
18383;SDS011;9318;48.644;9.456;2023-04-15T06:05:23;12.57;;;5.57;;
18383;SDS011;9318;48.644;9.456;2023-04-15T06:07:49;11.30;;;5.20;;
18383;SDS011;9318;48.644;9.456;2023-04-15T06:10:16;9.97;;;5.37;;
18383;SDS011;9318;48.644;9.456;2023-04-15T06:12:43;12.27;;;5.07;;
18383;SDS011;9318;48.644;9.456;2023-04-15T06:15:10;11.87;;;5.10;;
18383;SDS011;9318;48.644;9.456;2023-04-15T06:17:38;9.27;;;4.83;;
18383;SDS011;9318;48.644;9.456;2023-04-15T06:20:06;8.80;;;4.77;;
18383;SDS011;9318;48.644;9.456;2023-04-15T06:22:33;11.63;;;4.60;;
18383;SDS011;9318;48.644;9.456;2023-04-15T06:25:01;7.70;;;4.30;;
18383;SDS011;9318;48.644;9.456;2023-04-15T06:27:28;10.10;;;4.67;;
18383;SDS011;9318;48.644;9.456;2023-04-15T06:29:56;6.87;;;4.40;;
18383;SDS011;9318;48.644;9.456;2023-04-15T06:32:22;7.77;;;4.30;;
18383;SDS011;9318;48.644;9.456;2023-04-15T06:34:51;10.63;;;4.70;;
18383;SDS011;9318;48.644;9.456;2023-04-15T06:37:18;10.13;;;4.80;;
18383;SDS011;9318;48.644;9.456;2023-04-15T06:39:45;10.57;;;4.90;;
18383;SDS011;9318;48.644;9.456;2023-04-15T06:42:12;10.53;;;5.07;;
18383;SDS011;9318;48.644;9.456;2023-04-15T06:44:38;11.97;;;5.30;;
18383;SDS011;9318;48.644;9.456;2023-04-15T06:47:05;8.90;;;4.60;;
18383;SDS011;9318;48.644;9.456;2023-04-15T06:49:33;9.60;;;4.80;;
18383;SDS011;9318;48.644;9.456;2023-04-15T06:52:01;9.90;;;5.00;;
18383;SDS011;9318;48.644;9.456;2023-04-15T06:54:29;10.60;;;5.10;;
18383;SDS011;9318;48.644;9.456;2023-04-15T06:56:56;9.63;;;4.67;;
18383;SDS011;9318;48.644;9.456;2023-04-15T06:59:22;9.37;;;4.97;;
18383;SDS011;9318;48.644;9.456;2023-04-15T07:01:49;7.43;;;4.37;;
18383;SDS011;9318;48.644;9.456;2023-04-15T07:04:16;10.40;;;4.97;;
18383;SDS011;9318;48.644;9.456;2023-04-15T07:06:43;9.53;;;4.60;;
18383;SDS011;9318;48.644;9.456;2023-04-15T07:09:11;9.27;;;4.67;;
18383;SDS011;9318;48.644;9.456;2023-04-15T07:11:38;9.77;;;5.00;;
18383;SDS011;9318;48.644;9.456;2023-04-15T07:14:05;8.57;;;4.80;;
18383;SDS011;9318;48.644;9.456;2023-04-15T07:16:31;11.50;;;5.30;;
18383;SDS011;9318;48.644;9.456;2023-04-15T07:18:58;11.07;;;5.30;;
18383;SDS011;9318;48.644;9.456;2023-04-15T07:21:25;11.03;;;5.07;;
18383;SDS011;9318;48.644;9.456;2023-04-15T07:23:52;11.30;;;5.10;;
18383;SDS011;9318;48.644;9.456;2023-04-15T07:26:20;10.40;;;4.97;;
18383;SDS011;9318;48.644;9.456;2023-04-15T07:28:47;14.03;;;6.40;;
18383;SDS011;9318;48.644;9.456;2023-04-15T07:31:14;11.50;;;5.30;;
18383;SDS011;9318;48.644;9.456;2023-04-15T07:33:41;10.73;;;5.13;;
18383;SDS011;9318;48.644;9.456;2023-04-15T07:36:08;7.93;;;4.80;;
18383;SDS011;9318;48.644;9.456;2023-04-15T07:38:35;10.33;;;5.30;;
18383;SDS011;9318;48.644;9.456;2023-04-15T07:41:01;10.23;;;5.07;;
18383;SDS011;9318;48.644;9.456;2023-04-15T07:43:30;10.07;;;4.90;;
18383;SDS011;9318;48.644;9.456;2023-04-15T07:45:57;15.07;;;5.20;;
18383;SDS011;9318;48.644;9.456;2023-04-15T07:48:24;8.03;;;4.70;;
18383;SDS011;9318;48.644;9.456;2023-04-15T07:50:51;9.70;;;4.80;;
18383;SDS011;9318;48.644;9.456;2023-04-15T07:53:18;9.10;;;4.33;;
18383;SDS011;9318;48.644;9.456;2023-04-15T07:55:45;13.23;;;4.50;;
18383;SDS011;9318;48.644;9.456;2023-04-15T07:58:11;9.77;;;4.50;;
18383;SDS011;9318;48.644;9.456;2023-04-15T08:00:40;9.23;;;4.03;;
18383;SDS011;9318;48.644;9.456;2023-04-15T08:03:06;14.77;;;4.30;;
18383;SDS011;9318;48.644;9.456;2023-04-15T08:05:33;9.13;;;3.73;;
18383;SDS011;9318;48.644;9.456;2023-04-15T08:08:00;10.57;;;3.83;;
18383;SDS011;9318;48.644;9.456;2023-04-15T08:10:28;9.32;;;4.40;;
18383;SDS011;9318;48.644;9.456;2023-04-15T08:12:55;10.63;;;4.15;;
18383;SDS011;9318;48.644;9.456;2023-04-15T08:15:22;8.90;;;4.10;;
18383;SDS011;9318;48.644;9.456;2023-04-15T08:17:50;10.52;;;4.47;;
18383;SDS011;9318;48.644;9.456;2023-04-15T08:20:17;8.40;;;4.00;;
18383;SDS011;9318;48.644;9.456;2023-04-15T08:22:44;10.85;;;4.38;;
18383;SDS011;9318;48.644;9.456;2023-04-15T08:25:15;7.65;;;3.42;;
18383;SDS011;9318;48.644;9.456;2023-04-15T08:27:42;9.23;;;3.70;;
18383;SDS011;9318;48.644;9.456;2023-04-15T08:30:09;7.05;;;3.38;;
18383;SDS011;9318;48.644;9.456;2023-04-15T08:32:37;8.93;;;3.80;;
18383;SDS011;9318;48.644;9.456;2023-04-15T08:35:05;6.45;;;3.45;;
18383;SDS011;9318;48.644;9.456;2023-04-15T08:37:33;7.30;;;3.30;;
18383;SDS011;9318;48.644;9.456;2023-04-15T08:39:59;8.68;;;3.97;;
18383;SDS011;9318;48.644;9.456;2023-04-15T08:42:29;17.25;;;5.35;;
18383;SDS011;9318;48.644;9.456;2023-04-15T08:44:58;11.55;;;4.40;;
18383;SDS011;9318;48.644;9.456;2023-04-15T08:47:27;8.50;;;3.80;;
18383;SDS011;9318;48.644;9.456;2023-04-15T08:49:56;9.95;;;4.13;;
18383;SDS011;9318;48.644;9.456;2023-04-15T08:52:25;9.13;;;3.75;;
18383;SDS011;9318;48.644;9.456;2023-04-15T08:54:52;9.95;;;3.70;;
18383;SDS011;9318;48.644;9.456;2023-04-15T08:57:23;7.07;;;3.53;;
18383;SDS011;9318;48.644;9.456;2023-04-15T08:59:51;8.88;;;3.58;;
18383;SDS011;9318;48.644;9.456;2023-04-15T09:02:19;5.88;;;2.88;;
18383;SDS011;9318;48.644;9.456;2023-04-15T09:04:46;7.53;;;3.60;;
18383;SDS011;9318;48.644;9.456;2023-04-15T09:07:12;7.00;;;3.47;;
18383;SDS011;9318;48.644;9.456;2023-04-15T09:09:41;9.55;;;3.53;;
18383;SDS011;9318;48.644;9.456;2023-04-15T09:12:07;8.50;;;3.70;;
18383;SDS011;9318;48.644;9.456;2023-04-15T09:14:35;9.88;;;3.47;;
18383;SDS011;9318;48.644;9.456;2023-04-15T09:17:03;7.10;;;3.42;;
18383;SDS011;9318;48.644;9.456;2023-04-15T09:19:30;6.82;;;3.53;;
18383;SDS011;9318;48.644;9.456;2023-04-15T09:21:58;7.00;;;3.60;;
18383;SDS011;9318;48.644;9.456;2023-04-15T09:24:32;7.05;;;3.60;;
18383;SDS011;9318;48.644;9.456;2023-04-15T09:27:03;5.93;;;2.90;;
18383;SDS011;9318;48.644;9.456;2023-04-15T09:29:31;8.27;;;3.30;;
18383;SDS011;9318;48.644;9.456;2023-04-15T09:32:07;3.97;;;2.60;;
18383;SDS011;9318;48.644;9.456;2023-04-15T09:34:35;5.90;;;2.80;;
18383;SDS011;9318;48.644;9.456;2023-04-15T09:37:02;7.20;;;3.00;;
18383;SDS011;9318;48.644;9.456;2023-04-15T09:39:43;7.47;;;3.08;;
18383;SDS011;9318;48.644;9.456;2023-04-15T09:42:13;6.15;;;3.03;;
18383;SDS011;9318;48.644;9.456;2023-04-15T09:44:41;7.70;;;3.08;;
18383;SDS011;9318;48.644;9.456;2023-04-15T09:47:08;8.77;;;3.05;;
18383;SDS011;9318;48.644;9.456;2023-04-15T09:49:35;6.80;;;2.90;;
18383;SDS011;9318;48.644;9.456;2023-04-15T09:52:02;8.95;;;2.88;;
18383;SDS011;9318;48.644;9.456;2023-04-15T09:54:32;4.45;;;2.72;;
18383;SDS011;9318;48.644;9.456;2023-04-15T09:57:04;6.47;;;3.22;;
18383;SDS011;9318;48.644;9.456;2023-04-15T09:59:32;5.45;;;2.90;;
18383;SDS011;9318;48.644;9.456;2023-04-15T10:01:59;6.72;;;2.83;;
18383;SDS011;9318;48.644;9.456;2023-04-15T10:04:29;5.28;;;2.90;;
18383;SDS011;9318;48.644;9.456;2023-04-15T10:06:58;8.48;;;2.90;;
18383;SDS011;9318;48.644;9.456;2023-04-15T10:09:26;5.97;;;2.90;;
18383;SDS011;9318;48.644;9.456;2023-04-15T10:11:53;5.70;;;3.13;;
18383;SDS011;9318;48.644;9.456;2023-04-15T10:14:20;5.07;;;2.97;;
18383;SDS011;9318;48.644;9.456;2023-04-15T10:16:48;8.52;;;3.35;;
18383;SDS011;9318;48.644;9.456;2023-04-15T10:19:16;6.05;;;3.10;;
18383;SDS011;9318;48.644;9.456;2023-04-15T10:21:46;7.35;;;3.20;;
18383;SDS011;9318;48.644;9.456;2023-04-15T10:24:15;9.02;;;3.40;;
18383;SDS011;9318;48.644;9.456;2023-04-15T10:26:42;5.57;;;3.40;;
18383;SDS011;9318;48.644;9.456;2023-04-15T10:29:10;13.13;;;3.28;;
18383;SDS011;9318;48.644;9.456;2023-04-15T10:31:37;9.98;;;3.50;;
18383;SDS011;9318;48.644;9.456;2023-04-15T10:34:06;9.30;;;3.60;;
18383;SDS011;9318;48.644;9.456;2023-04-15T10:36:33;12.35;;;3.85;;
18383;SDS011;9318;48.644;9.456;2023-04-15T10:39:00;7.30;;;3.38;;
18383;SDS011;9318;48.644;9.456;2023-04-15T10:41:27;8.98;;;3.28;;
18383;SDS011;9318;48.644;9.456;2023-04-15T10:43:55;9.77;;;3.58;;
18383;SDS011;9318;48.644;9.456;2023-04-15T10:46:33;8.07;;;3.55;;
18383;SDS011;9318;48.644;9.456;2023-04-15T10:49:07;7.88;;;3.55;;
18383;SDS011;9318;48.644;9.456;2023-04-15T10:51:36;11.73;;;3.90;;
18383;SDS011;9318;48.644;9.456;2023-04-15T10:54:08;9.15;;;3.70;;
18383;SDS011;9318;48.644;9.456;2023-04-15T10:56:40;10.52;;;3.63;;
18383;SDS011;9318;48.644;9.456;2023-04-15T10:59:07;9.57;;;4.05;;
18383;SDS011;9318;48.644;9.456;2023-04-15T11:01:50;11.00;;;4.10;;
18383;SDS011;9318;48.644;9.456;2023-04-15T11:07:34;9.80;;;3.67;;
18383;SDS011;9318;48.644;9.456;2023-04-15T11:13:22;11.63;;;4.43;;
18383;SDS011;9318;48.644;9.456;2023-04-15T11:15:57;7.63;;;4.07;;
18383;SDS011;9318;48.644;9.456;2023-04-15T11:18:26;6.70;;;3.88;;
18383;SDS011;9318;48.644;9.456;2023-04-15T11:20:56;11.23;;;4.30;;
18383;SDS011;9318;48.644;9.456;2023-04-15T11:23:28;9.40;;;4.00;;
18383;SDS011;9318;48.644;9.456;2023-04-15T11:25:57;12.15;;;3.90;;
18383;SDS011;9318;48.644;9.456;2023-04-15T11:28:25;10.32;;;3.50;;
18383;SDS011;9318;48.644;9.456;2023-04-15T11:30:53;8.48;;;3.85;;
18383;SDS011;9318;48.644;9.456;2023-04-15T11:33:21;8.93;;;4.47;;
18383;SDS011;9318;48.644;9.456;2023-04-15T11:35:49;6.20;;;3.60;;
18383;SDS011;9318;48.644;9.456;2023-04-15T11:38:17;9.10;;;3.60;;
18383;SDS011;9318;48.644;9.456;2023-04-15T11:40:44;5.83;;;3.77;;
18383;SDS011;9318;48.644;9.456;2023-04-15T11:43:11;8.60;;;3.90;;
18383;SDS011;9318;48.644;9.456;2023-04-15T11:45:47;7.80;;;4.00;;
18383;SDS011;9318;48.644;9.456;2023-04-15T11:48:16;7.47;;;3.60;;
18383;SDS011;9318;48.644;9.456;2023-04-15T11:50:44;7.80;;;4.30;;
18383;SDS011;9318;48.644;9.456;2023-04-15T11:53:12;9.33;;;4.30;;
18383;SDS011;9318;48.644;9.456;2023-04-15T11:55:44;8.50;;;4.30;;
18383;SDS011;9318;48.644;9.456;2023-04-15T11:58:13;9.03;;;3.97;;
18383;SDS011;9318;48.644;9.456;2023-04-15T12:00:44;10.47;;;4.40;;
18383;SDS011;9318;48.644;9.456;2023-04-15T12:03:14;6.43;;;3.53;;
18383;SDS011;9318;48.644;9.456;2023-04-15T12:08:54;7.67;;;3.70;;
18383;SDS011;9318;48.644;9.456;2023-04-15T12:11:30;8.37;;;4.10;;
18383;SDS011;9318;48.644;9.456;2023-04-15T12:14:03;9.83;;;4.30;;
18383;SDS011;9318;48.644;9.456;2023-04-15T12:16:32;6.17;;;3.90;;
18383;SDS011;9318;48.644;9.456;2023-04-15T12:19:01;7.43;;;3.60;;
18383;SDS011;9318;48.644;9.456;2023-04-15T12:21:32;7.80;;;3.90;;
18383;SDS011;9318;48.644;9.456;2023-04-15T12:24:01;7.77;;;3.70;;
18383;SDS011;9318;48.644;9.456;2023-04-15T12:26:32;4.63;;;3.37;;
18383;SDS011;9318;48.644;9.456;2023-04-15T12:29:00;8.27;;;3.70;;
18383;SDS011;9318;48.644;9.456;2023-04-15T12:31:28;6.83;;;3.60;;
18383;SDS011;9318;48.644;9.456;2023-04-15T12:33:55;5.70;;;3.27;;
18383;SDS011;9318;48.644;9.456;2023-04-15T12:36:22;8.33;;;3.60;;
18383;SDS011;9318;48.644;9.456;2023-04-15T12:38:49;10.23;;;3.90;;
18383;SDS011;9318;48.644;9.456;2023-04-15T12:41:16;7.47;;;3.43;;
18383;SDS011;9318;48.644;9.456;2023-04-15T12:43:44;5.33;;;3.57;;
18383;SDS011;9318;48.644;9.456;2023-04-15T12:46:11;9.60;;;3.33;;
18383;SDS011;9318;48.644;9.456;2023-04-15T12:48:38;4.57;;;3.30;;
18383;SDS011;9318;48.644;9.456;2023-04-15T12:51:05;6.20;;;3.17;;
18383;SDS011;9318;48.644;9.456;2023-04-15T12:53:32;4.97;;;3.03;;
18383;SDS011;9318;48.644;9.456;2023-04-15T12:55:59;6.90;;;3.00;;
18383;SDS011;9318;48.644;9.456;2023-04-15T12:58:25;8.13;;;3.20;;
18383;SDS011;9318;48.644;9.456;2023-04-15T13:00:54;4.67;;;3.23;;
18383;SDS011;9318;48.644;9.456;2023-04-15T13:03:21;7.33;;;3.07;;
18383;SDS011;9318;48.644;9.456;2023-04-15T13:05:48;6.53;;;2.90;;
18383;SDS011;9318;48.644;9.456;2023-04-15T13:08:14;5.57;;;2.90;;
18383;SDS011;9318;48.644;9.456;2023-04-15T13:10:41;4.93;;;2.80;;
18383;SDS011;9318;48.644;9.456;2023-04-15T13:13:08;5.83;;;2.70;;
18383;SDS011;9318;48.644;9.456;2023-04-15T13:15:35;6.50;;;2.87;;
18383;SDS011;9318;48.644;9.456;2023-04-15T13:18:03;5.57;;;2.70;;
18383;SDS011;9318;48.644;9.456;2023-04-15T13:20:32;4.17;;;2.70;;
18383;SDS011;9318;48.644;9.456;2023-04-15T13:22:58;4.43;;;3.00;;
18383;SDS011;9318;48.644;9.456;2023-04-15T13:25:25;5.10;;;2.60;;
18383;SDS011;9318;48.644;9.456;2023-04-15T13:27:52;5.00;;;2.80;;
18383;SDS011;9318;48.644;9.456;2023-04-15T13:30:19;4.13;;;2.70;;
18383;SDS011;9318;48.644;9.456;2023-04-15T13:32:45;4.47;;;2.43;;
18383;SDS011;9318;48.644;9.456;2023-04-15T13:35:13;4.50;;;3.40;;
18383;SDS011;9318;48.644;9.456;2023-04-15T13:37:40;2.97;;;2.30;;
18383;SDS011;9318;48.644;9.456;2023-04-15T13:40:07;5.27;;;2.50;;
18383;SDS011;9318;48.644;9.456;2023-04-15T13:42:35;6.73;;;2.30;;
18383;SDS011;9318;48.644;9.456;2023-04-15T13:45:01;9.70;;;2.40;;
18383;SDS011;9318;48.644;9.456;2023-04-15T13:47:28;3.10;;;2.00;;
18383;SDS011;9318;48.644;9.456;2023-04-15T13:49:55;4.10;;;2.10;;
18383;SDS011;9318;48.644;9.456;2023-04-15T13:52:24;3.23;;;2.27;;
18383;SDS011;9318;48.644;9.456;2023-04-15T13:54:50;2.20;;;2.00;;
18383;SDS011;9318;48.644;9.456;2023-04-15T13:57:17;2.87;;;2.10;;
18383;SDS011;9318;48.644;9.456;2023-04-15T13:59:44;3.23;;;1.80;;
18383;SDS011;9318;48.644;9.456;2023-04-15T14:02:11;3.67;;;1.93;;
18383;SDS011;9318;48.644;9.456;2023-04-15T14:04:37;3.27;;;2.10;;
18383;SDS011;9318;48.644;9.456;2023-04-15T14:07:04;2.43;;;2.00;;
18383;SDS011;9318;48.644;9.456;2023-04-15T14:09:32;2.27;;;2.00;;
18383;SDS011;9318;48.644;9.456;2023-04-15T14:12:00;3.10;;;1.73;;
18383;SDS011;9318;48.644;9.456;2023-04-15T14:14:26;3.20;;;1.87;;
18383;SDS011;9318;48.644;9.456;2023-04-15T14:16:53;2.57;;;1.90;;
18383;SDS011;9318;48.644;9.456;2023-04-15T14:19:21;2.30;;;2.10;;
18383;SDS011;9318;48.644;9.456;2023-04-15T14:21:48;2.33;;;2.10;;
18383;SDS011;9318;48.644;9.456;2023-04-15T14:24:14;3.47;;;1.63;;
18383;SDS011;9318;48.644;9.456;2023-04-15T14:26:42;3.53;;;2.10;;
18383;SDS011;9318;48.644;9.456;2023-04-15T14:29:09;4.17;;;2.17;;
18383;SDS011;9318;48.644;9.456;2023-04-15T14:31:36;3.43;;;2.13;;
18383;SDS011;9318;48.644;9.456;2023-04-15T14:34:03;3.63;;;2.30;;
18383;SDS011;9318;48.644;9.456;2023-04-15T14:36:30;2.30;;;2.10;;
18383;SDS011;9318;48.644;9.456;2023-04-15T14:38:57;2.97;;;2.20;;
18383;SDS011;9318;48.644;9.456;2023-04-15T14:41:24;4.13;;;2.10;;
18383;SDS011;9318;48.644;9.456;2023-04-15T14:43:52;5.67;;;2.67;;
18383;SDS011;9318;48.644;9.456;2023-04-15T14:46:19;4.23;;;2.27;;
18383;SDS011;9318;48.644;9.456;2023-04-15T14:48:46;5.60;;;2.70;;
18383;SDS011;9318;48.644;9.456;2023-04-15T14:51:12;4.43;;;2.30;;
18383;SDS011;9318;48.644;9.456;2023-04-15T14:53:40;6.60;;;2.70;;
18383;SDS011;9318;48.644;9.456;2023-04-15T14:56:07;4.37;;;2.70;;
18383;SDS011;9318;48.644;9.456;2023-04-15T14:58:33;5.23;;;3.13;;
18383;SDS011;9318;48.644;9.456;2023-04-15T15:01:02;4.60;;;2.50;;
18383;SDS011;9318;48.644;9.456;2023-04-15T15:03:29;3.93;;;2.60;;
18383;SDS011;9318;48.644;9.456;2023-04-15T15:05:56;6.07;;;2.77;;
18383;SDS011;9318;48.644;9.456;2023-04-15T15:08:23;5.03;;;2.60;;
18383;SDS011;9318;48.644;9.456;2023-04-15T15:10:50;7.23;;;3.63;;